createdAt,value
2019-05-02T00:01:37.260Z,99.90
2019-05-02T00:04:03.546Z,99.90
2019-05-02T00:06:30.740Z,99.90
2019-05-02T00:08:56.900Z,99.90
2019-05-02T00:11:23.013Z,99.90
2019-05-02T00:13:49.011Z,99.90
2019-05-02T00:16:15.461Z,99.90
2019-05-02T00:18:41.686Z,99.90
2019-05-02T00:21:07.804Z,99.90
2019-05-02T00:23:34.994Z,99.90
2019-05-02T00:26:02.408Z,99.90
2019-05-02T00:28:29.452Z,99.90
2019-05-02T00:30:57.932Z,99.90
2019-05-02T00:33:23.964Z,99.90
2019-05-02T00:35:52.468Z,99.90
2019-05-02T00:38:18.682Z,99.90
2019-05-02T00:40:50.646Z,99.90
2019-05-02T00:43:16.678Z,99.90
2019-05-02T00:45:44.863Z,99.90
2019-05-02T00:48:19.320Z,99.90
2019-05-02T00:50:50.972Z,99.90
2019-05-02T00:53:14.900Z,99.90
2019-05-02T00:55:40.922Z,99.90
2019-05-02T00:58:06.961Z,99.90
2019-05-02T01:00:35.684Z,99.90
2019-05-02T01:03:02.410Z,99.90
2019-05-02T01:05:33.865Z,99.90
2019-05-02T01:08:01.045Z,99.90
2019-05-02T01:10:28.689Z,99.90
2019-05-02T01:12:54.856Z,99.90
2019-05-02T01:15:20.880Z,99.90
2019-05-02T01:17:48.553Z,99.90
2019-05-02T01:20:14.647Z,99.90
2019-05-02T01:22:40.908Z,99.90
2019-05-02T01:25:14.959Z,99.90
2019-05-02T01:27:48.787Z,99.90
2019-05-02T01:30:37.152Z,99.90
2019-05-02T01:33:10.520Z,99.90
2019-05-02T01:35:41.230Z,99.90
2019-05-02T01:38:17.759Z,99.90
2019-05-02T01:40:48.156Z,99.90
2019-05-02T01:43:29.903Z,99.90
2019-05-02T01:45:56.006Z,99.90
2019-05-02T01:48:22.576Z,99.90
2019-05-02T01:50:49.707Z,99.90
2019-05-02T01:53:17.012Z,99.90
2019-05-02T01:55:44.456Z,99.90
2019-05-02T01:58:10.537Z,99.90
2019-05-02T02:00:40.940Z,99.90
2019-05-02T02:03:09.197Z,99.90
2019-05-02T02:05:35.883Z,99.90
2019-05-02T02:08:01.963Z,99.90
2019-05-02T02:10:27.979Z,99.90
2019-05-02T02:13:03.370Z,99.90
2019-05-02T02:15:25.036Z,99.90
2019-05-02T02:17:53.779Z,99.90
2019-05-02T02:20:21.719Z,99.90
2019-05-02T02:23:01.284Z,99.90
2019-05-02T02:25:39.956Z,99.90
2019-05-02T02:28:07.858Z,99.90
2019-05-02T02:30:35.342Z,99.90
2019-05-02T02:33:07.420Z,99.90
2019-05-02T02:35:29.335Z,99.90
2019-05-02T02:37:55.866Z,99.90
2019-05-02T02:40:33.026Z,99.90
2019-05-02T02:42:49.894Z,99.90
2019-05-02T02:45:38.655Z,99.90
2019-05-02T02:48:05.662Z,99.90
2019-05-02T02:50:36.690Z,99.90
2019-05-02T02:53:00.641Z,99.90
2019-05-02T02:55:28.661Z,99.90
2019-05-02T02:57:58.322Z,99.90
2019-05-02T03:00:22.768Z,99.90
2019-05-02T03:02:50.131Z,99.90
2019-05-02T03:05:18.687Z,99.90
2019-05-02T03:07:44.202Z,99.90
2019-05-02T03:10:11.334Z,99.90
2019-05-02T03:12:41.427Z,99.90
2019-05-02T03:15:09.437Z,99.90
2019-05-02T03:17:35.439Z,99.90
2019-05-02T03:20:03.951Z,99.90
2019-05-02T03:22:34.938Z,99.90
2019-05-02T03:24:58.629Z,99.90
2019-05-02T03:27:29.999Z,99.90
2019-05-02T03:29:52.525Z,99.90
2019-05-02T03:32:32.172Z,99.90
2019-05-02T03:34:53.492Z,99.90
2019-05-02T03:37:16.532Z,99.90
2019-05-02T03:39:42.583Z,99.90
2019-05-02T03:42:08.964Z,99.90
2019-05-02T03:44:34.932Z,99.90
2019-05-02T03:47:04.618Z,99.90
2019-05-02T03:49:29.986Z,99.90
2019-05-02T03:52:02.605Z,99.90
2019-05-02T03:54:23.942Z,99.90
2019-05-02T03:56:51.543Z,99.90
2019-05-02T03:59:20.083Z,99.90
2019-05-02T04:01:46.948Z,99.90
2019-05-02T04:04:20.553Z,99.90
2019-05-02T04:06:43.425Z,99.90
2019-05-02T04:09:13.242Z,99.90
2019-05-02T04:11:40.935Z,99.90
2019-05-02T04:14:15.905Z,99.90
2019-05-02T04:16:38.124Z,99.90
2019-05-02T04:19:04.137Z,99.90
2019-05-02T04:21:30.372Z,99.90
2019-05-02T04:24:06.675Z,99.90
2019-05-02T04:26:24.247Z,99.90
2019-05-02T04:28:51.795Z,99.90
2019-05-02T04:31:18.182Z,99.90
2019-05-02T04:33:44.326Z,99.90
2019-05-02T04:36:15.862Z,99.90
2019-05-02T04:38:46.538Z,99.90
2019-05-02T04:41:09.358Z,99.90
2019-05-02T04:43:40.581Z,99.90
2019-05-02T04:46:09.253Z,99.90
2019-05-02T04:48:34.799Z,99.90
2019-05-02T04:51:10.415Z,99.90
2019-05-02T04:53:36.593Z,99.90
2019-05-02T04:56:06.945Z,99.90
2019-05-02T04:58:33.405Z,99.90
2019-05-02T05:00:59.252Z,99.90
2019-05-02T05:03:28.405Z,99.90
2019-05-02T05:06:01.568Z,99.90
2019-05-02T05:08:26.468Z,99.90
2019-05-02T05:10:51.811Z,99.90
2019-05-02T05:13:22.785Z,99.90
2019-05-02T05:15:51.157Z,99.90
2019-05-02T05:18:14.651Z,99.90
2019-05-02T05:20:46.082Z,99.90
2019-05-02T05:23:15.698Z,99.90
2019-05-02T05:25:55.609Z,99.90
2019-05-02T05:28:20.009Z,99.90
2019-05-02T05:30:51.883Z,99.90
2019-05-02T05:33:18.146Z,99.90
2019-05-02T05:35:48.777Z,99.90
2019-05-02T05:38:14.405Z,99.90
2019-05-02T05:40:41.420Z,99.90
2019-05-02T05:43:14.560Z,99.90
2019-05-02T05:45:48.767Z,99.90
2019-05-02T05:48:04.364Z,99.90
2019-05-02T05:50:32.222Z,99.90
2019-05-02T05:52:59.520Z,99.90
2019-05-02T05:55:25.668Z,99.90
2019-05-02T05:57:59.699Z,99.90
2019-05-02T06:00:23.232Z,99.90
2019-05-02T06:02:53.963Z,99.90
2019-05-02T06:05:17.447Z,99.90
2019-05-02T06:07:47.311Z,99.90
2019-05-02T06:10:14.450Z,99.90
2019-05-02T06:12:40.536Z,99.90
2019-05-02T06:15:06.547Z,99.90
2019-05-02T06:17:35.775Z,99.90
2019-05-02T06:20:04.690Z,99.90
2019-05-02T06:22:31.833Z,99.90
2019-05-02T06:24:59.823Z,99.90
2019-05-02T06:27:30.257Z,99.90
2019-05-02T06:29:56.159Z,99.90
2019-05-02T06:32:21.695Z,99.90
2019-05-02T06:34:48.867Z,99.90
2019-05-02T06:37:15.500Z,99.90
2019-05-02T06:39:41.658Z,99.90
2019-05-02T06:42:07.670Z,99.90
2019-05-02T06:44:33.687Z,99.90
2019-05-02T06:47:04.375Z,99.90
2019-05-02T06:49:29.670Z,99.90
2019-05-02T06:51:56.199Z,99.90
2019-05-02T06:54:27.610Z,99.90
2019-05-02T06:56:53.770Z,99.90
2019-05-02T06:59:20.352Z,99.90
2019-05-02T07:01:52.349Z,99.90
2019-05-02T07:04:22.923Z,99.90
2019-05-02T07:06:58.168Z,99.90
2019-05-02T07:09:15.941Z,99.90
2019-05-02T07:11:56.406Z,99.90
2019-05-02T07:14:13.810Z,99.90
2019-05-02T07:16:41.927Z,99.90
2019-05-02T07:19:27.212Z,99.90
2019-05-02T07:21:53.046Z,99.90
2019-05-02T07:24:19.815Z,99.90
2019-05-02T07:26:45.957Z,99.90
2019-05-02T07:29:11.986Z,99.90
2019-05-02T07:31:42.961Z,99.90
2019-05-02T07:34:12.940Z,99.90
2019-05-02T07:36:38.343Z,99.90
2019-05-02T07:39:07.019Z,99.90
2019-05-02T07:41:33.027Z,99.90
2019-05-02T07:44:00.064Z,99.90
2019-05-02T07:46:28.322Z,99.90
2019-05-02T07:48:58.275Z,99.90
2019-05-02T07:51:24.471Z,99.90
2019-05-02T07:53:50.513Z,99.90
2019-05-02T07:56:18.882Z,99.90
2019-05-02T07:58:48.006Z,99.90
2019-05-02T08:01:15.179Z,99.90
2019-05-02T08:03:41.182Z,99.90
2019-05-02T08:06:07.635Z,99.90
2019-05-02T08:08:36.157Z,99.90
2019-05-02T08:11:03.246Z,99.90
2019-05-02T08:13:31.447Z,99.90
2019-05-02T08:15:58.299Z,99.90
2019-05-02T08:18:25.133Z,99.90
2019-05-02T08:20:56.028Z,99.90
2019-05-02T08:23:25.767Z,99.90
2019-05-02T08:25:49.465Z,99.90
2019-05-02T08:28:17.938Z,99.90
2019-05-02T08:30:51.817Z,99.90
2019-05-02T08:33:17.825Z,99.90
2019-05-02T08:35:44.047Z,99.90
2019-05-02T08:38:12.668Z,99.90
2019-05-02T08:40:42.273Z,99.90
2019-05-02T08:43:09.286Z,99.90
2019-05-02T08:45:38.142Z,99.90
2019-05-02T08:48:09.646Z,99.90
2019-05-02T08:50:38.072Z,99.90
2019-05-02T08:53:04.093Z,99.90
2019-05-02T08:55:30.213Z,99.90
2019-05-02T08:57:56.231Z,99.90
2019-05-02T09:00:22.318Z,99.90
2019-05-02T09:02:49.408Z,99.90
2019-05-02T09:05:15.530Z,99.90
2019-05-02T09:07:44.462Z,99.90
2019-05-02T09:10:12.516Z,99.90
2019-05-02T09:12:45.334Z,99.90
2019-05-02T09:15:11.674Z,99.90
2019-05-02T09:17:38.887Z,99.90
2019-05-02T09:20:15.479Z,99.90
2019-05-02T09:22:35.228Z,99.90
2019-05-02T09:25:02.218Z,99.90
2019-05-02T09:27:31.889Z,99.90
2019-05-02T09:29:57.899Z,99.90
2019-05-02T09:32:26.317Z,99.90
2019-05-02T09:34:56.623Z,99.90
2019-05-02T09:37:22.749Z,99.90
2019-05-02T09:39:52.502Z,99.90
2019-05-02T09:42:19.152Z,99.90
2019-05-02T09:44:55.429Z,99.90
2019-05-02T09:47:27.393Z,99.90
2019-05-02T09:50:06.486Z,99.90
2019-05-02T09:52:39.242Z,99.90
2019-05-02T09:55:06.163Z,99.90
2019-05-02T09:57:34.655Z,99.90
2019-05-02T10:00:14.850Z,99.90
2019-05-02T10:02:41.846Z,99.90
2019-05-02T10:05:08.218Z,99.90
2019-05-02T10:07:35.214Z,99.90
2019-05-02T10:10:03.195Z,99.90
2019-05-02T10:12:32.095Z,99.90
2019-05-02T10:14:59.174Z,99.90
2019-05-02T10:17:25.881Z,99.90
2019-05-02T10:19:56.565Z,99.90
2019-05-02T10:22:19.901Z,99.90
2019-05-02T10:24:47.805Z,99.90
2019-05-02T10:27:13.863Z,99.90
2019-05-02T10:29:41.866Z,99.90
2019-05-02T10:32:13.018Z,99.90
2019-05-02T10:34:37.205Z,99.90
2019-05-02T10:37:03.301Z,99.90
2019-05-02T10:39:36.158Z,99.90
2019-05-02T10:42:01.972Z,99.90
2019-05-02T10:44:34.859Z,99.90
2019-05-02T10:46:57.606Z,99.90
2019-05-02T10:49:26.648Z,99.90
2019-05-02T10:51:54.356Z,99.90
2019-05-02T10:54:23.122Z,99.90
2019-05-02T10:56:49.367Z,99.90
2019-05-02T10:59:22.080Z,99.90
2019-05-02T11:01:52.158Z,99.90
2019-05-02T11:04:18.366Z,99.90
2019-05-02T11:06:46.322Z,99.90
2019-05-02T11:09:16.849Z,99.90
2019-05-02T11:11:42.578Z,99.90
2019-05-02T11:14:19.428Z,99.90
2019-05-02T11:16:56.909Z,99.90
2019-05-02T11:19:44.165Z,99.90
2019-05-02T11:22:12.153Z,99.90
2019-05-02T11:24:38.297Z,99.50
2019-05-02T11:27:04.475Z,99.70
2019-05-02T11:29:32.226Z,98.70
2019-05-02T11:31:59.455Z,99.80
2019-05-02T11:34:25.771Z,99.00
2019-05-02T11:36:56.199Z,99.70
2019-05-02T11:39:30.969Z,98.50
2019-05-02T11:41:53.680Z,98.30
2019-05-02T11:44:22.542Z,98.90
2019-05-02T11:46:49.109Z,98.80
2019-05-02T11:49:15.141Z,98.80
2019-05-02T11:51:42.137Z,98.70
2019-05-02T11:54:09.488Z,97.30
2019-05-02T11:56:35.638Z,97.20
2019-05-02T11:59:02.886Z,95.50
2019-05-02T12:01:37.077Z,94.70
2019-05-02T12:03:58.101Z,95.40
2019-05-02T12:06:24.341Z,96.00
2019-05-02T12:08:53.771Z,96.70
2019-05-02T12:11:19.897Z,96.80
2019-05-02T12:13:47.364Z,96.50
2019-05-02T12:16:15.971Z,95.10
2019-05-02T12:18:42.101Z,94.30
2019-05-02T12:21:11.826Z,94.40
2019-05-02T12:23:37.721Z,95.30
2019-05-02T12:26:03.977Z,95.70
2019-05-02T12:28:32.435Z,96.30
2019-05-02T12:31:00.193Z,96.30
2019-05-02T12:33:29.137Z,96.10
2019-05-02T12:35:56.706Z,96.50
2019-05-02T12:38:23.517Z,96.20
2019-05-02T12:40:51.906Z,95.80
2019-05-02T12:43:19.495Z,95.40
2019-05-02T12:45:46.509Z,95.90
2019-05-02T12:48:13.522Z,95.90
2019-05-02T12:50:41.942Z,95.20
2019-05-02T12:53:08.096Z,94.30
2019-05-02T12:55:36.116Z,94.80
2019-05-02T12:58:03.323Z,95.00
2019-05-02T13:00:32.009Z,94.80
2019-05-02T13:03:08.866Z,94.20
2019-05-02T13:05:35.916Z,94.40
2019-05-02T13:08:04.886Z,94.40
2019-05-02T13:10:33.888Z,94.60
2019-05-02T13:13:03.873Z,94.60
2019-05-02T13:15:32.950Z,94.70
2019-05-02T13:17:59.177Z,94.70
2019-05-02T13:20:29.402Z,94.90
2019-05-02T13:23:01.546Z,94.90
2019-05-02T13:25:35.195Z,94.70
2019-05-02T13:28:02.001Z,94.70
2019-05-02T13:30:46.701Z,95.00
2019-05-02T13:33:27.328Z,95.20
2019-05-02T13:35:56.194Z,94.80
2019-05-02T13:38:24.345Z,95.00
2019-05-02T13:40:57.124Z,94.00
2019-05-02T13:43:25.043Z,94.20
2019-05-02T13:46:06.456Z,94.30
2019-05-02T13:48:33.520Z,94.40
2019-05-02T13:51:03.784Z,94.60
2019-05-02T13:53:29.666Z,94.10
2019-05-02T13:56:16.593Z,94.10
2019-05-02T13:58:42.677Z,93.70
2019-05-02T14:01:09.213Z,92.90
2019-05-02T14:03:36.266Z,92.00
2019-05-02T14:06:02.962Z,92.10
2019-05-02T14:08:36.733Z,92.00
2019-05-02T14:11:07.706Z,91.60
2019-05-02T14:13:34.035Z,90.80
2019-05-02T14:16:02.148Z,90.80
2019-05-02T14:18:30.989Z,90.20
2019-05-02T14:20:56.211Z,90.60
2019-05-02T14:23:22.263Z,90.50
2019-05-02T14:25:49.319Z,90.70
2019-05-02T14:28:15.395Z,90.80
2019-05-02T14:30:45.970Z,90.40
2019-05-02T14:33:14.115Z,90.30
2019-05-02T14:35:40.190Z,88.60
2019-05-02T14:38:06.906Z,88.50
2019-05-02T14:40:33.471Z,88.20
2019-05-02T14:43:03.484Z,87.40
2019-05-02T14:45:31.346Z,86.40
2019-05-02T14:47:58.867Z,86.10
2019-05-02T14:50:26.621Z,86.40
2019-05-02T14:52:52.493Z,85.10
2019-05-02T14:55:22.209Z,84.20
2019-05-02T14:57:46.786Z,83.60
2019-05-02T15:00:14.141Z,84.00
2019-05-02T15:02:44.987Z,85.00
2019-05-02T15:05:12.758Z,85.50
2019-05-02T15:07:39.046Z,85.50
2019-05-02T15:10:06.705Z,86.50
2019-05-02T15:12:33.801Z,86.30
2019-05-02T15:15:02.490Z,86.90
2019-05-02T15:17:36.269Z,86.00
2019-05-02T15:19:56.669Z,83.40
2019-05-02T15:22:27.600Z,83.70
2019-05-02T15:24:53.272Z,84.60
2019-05-02T15:27:19.569Z,84.70
2019-05-02T15:29:46.590Z,84.80
2019-05-02T15:32:27.874Z,84.50
2019-05-02T15:34:55.772Z,83.70
2019-05-02T15:37:25.589Z,83.40
2019-05-02T15:42:22.918Z,84.30
2019-05-02T15:44:48.635Z,84.30
2019-05-02T15:47:15.241Z,83.90
2019-05-02T15:49:50.352Z,84.40
2019-05-02T15:52:24.192Z,84.60
2019-05-02T15:54:55.493Z,86.30
2019-05-02T15:57:22.074Z,85.50
2019-05-02T15:59:47.272Z,85.00
2019-05-02T16:02:17.600Z,85.00
2019-05-02T16:04:43.973Z,85.50
2019-05-02T16:07:12.401Z,85.20
2019-05-02T16:09:41.658Z,85.20
2019-05-02T16:12:08.085Z,85.80
2019-05-02T16:14:36.299Z,85.60
2019-05-02T16:17:17.577Z,85.80
2019-05-02T16:19:35.451Z,86.80
2019-05-02T16:22:06.895Z,87.70
2019-05-02T16:24:33.365Z,87.80
2019-05-02T16:27:02.532Z,88.00
2019-05-02T16:29:31.861Z,88.20
2019-05-02T16:32:05.687Z,87.70
2019-05-02T16:34:34.456Z,87.80
2019-05-02T16:37:13.420Z,88.40
2019-05-02T16:39:42.521Z,88.40
2019-05-02T16:42:12.592Z,88.30
2019-05-02T16:44:39.051Z,87.40
2019-05-02T16:47:05.084Z,88.30
2019-05-02T16:49:32.221Z,87.60
2019-05-02T16:52:07.258Z,89.10
2019-05-02T16:54:41.526Z,88.40
2019-05-02T16:57:05.738Z,89.00
2019-05-02T16:59:32.401Z,88.00
2019-05-02T17:02:07.995Z,88.10
2019-05-02T17:04:35.584Z,87.60
2019-05-02T17:07:05.887Z,87.40
2019-05-02T17:09:38.794Z,87.70
2019-05-02T17:12:11.893Z,87.40
2019-05-02T17:14:51.559Z,86.50
2019-05-02T17:17:14.175Z,86.90
2019-05-02T17:19:40.225Z,87.20
2019-05-02T17:22:12.002Z,86.20
2019-05-02T17:24:38.215Z,85.50
2019-05-02T17:27:04.335Z,84.50
2019-05-02T17:29:31.834Z,83.10
2019-05-02T17:31:59.315Z,83.10
2019-05-02T17:34:30.684Z,81.30
2019-05-02T17:36:59.114Z,81.50
2019-05-02T17:39:23.138Z,80.40
2019-05-02T17:41:49.131Z,80.10
2019-05-02T17:44:18.374Z,79.50
2019-05-02T17:46:50.690Z,80.00
2019-05-02T17:49:15.696Z,79.80
2019-05-02T17:52:05.708Z,80.10
2019-05-02T17:54:28.044Z,78.50
2019-05-02T17:56:57.517Z,77.80
2019-05-02T17:59:34.431Z,78.20
2019-05-02T18:01:58.782Z,77.10
2019-05-02T18:04:28.017Z,77.70
2019-05-02T18:06:55.385Z,76.30
2019-05-02T18:09:26.231Z,74.60
2019-05-02T18:11:51.839Z,73.60
2019-05-02T18:14:21.139Z,73.30
2019-05-02T18:16:51.968Z,73.70
2019-05-02T18:19:21.858Z,73.40
2019-05-02T18:21:46.220Z,74.10
2019-05-02T18:24:13.449Z,73.70
2019-05-02T18:26:39.632Z,73.40
2019-05-02T18:29:06.985Z,72.70
2019-05-02T18:31:39.643Z,72.60
2019-05-02T18:34:14.332Z,72.70
2019-05-02T18:36:41.659Z,72.20
2019-05-02T18:39:09.768Z,72.60
2019-05-02T18:41:37.299Z,72.50
2019-05-02T18:44:17.098Z,73.00
2019-05-02T18:46:44.311Z,75.90
2019-05-02T18:49:12.378Z,74.00
2019-05-02T18:51:48.263Z,72.80
2019-05-02T18:54:12.656Z,72.70
2019-05-02T18:56:44.236Z,72.60
2019-05-02T18:59:06.731Z,73.30
2019-05-02T19:01:37.917Z,73.50
2019-05-02T19:04:05.956Z,76.10
2019-05-02T19:06:33.197Z,75.90
2019-05-02T19:09:06.776Z,75.40
2019-05-02T19:11:35.277Z,76.20
2019-05-02T19:14:03.164Z,78.50
2019-05-02T19:16:29.274Z,79.10
2019-05-02T19:19:01.715Z,78.40
2019-05-02T19:21:35.457Z,79.70
2019-05-02T19:24:02.138Z,80.40
2019-05-02T19:26:30.073Z,81.10
2019-05-02T19:29:08.334Z,81.80
2019-05-02T19:31:42.203Z,82.90
2019-05-02T19:34:06.030Z,84.00
2019-05-02T19:36:32.829Z,84.30
2019-05-02T19:39:07.874Z,85.10
2019-05-02T19:41:31.962Z,87.80
2019-05-02T19:43:59.022Z,92.00
2019-05-02T19:46:34.552Z,94.40
2019-05-02T19:48:55.626Z,95.90
2019-05-02T19:51:22.557Z,97.60
2019-05-02T19:53:59.398Z,99.80
2019-05-02T19:56:43.939Z,99.90
2019-05-02T19:59:08.631Z,99.90
2019-05-02T20:01:37.078Z,99.90
2019-05-02T20:04:06.149Z,99.90
2019-05-02T20:06:33.999Z,99.90
2019-05-02T20:09:04.715Z,99.90
2019-05-02T20:11:32.876Z,99.90
2019-05-02T20:14:09.156Z,99.90
2019-05-02T20:16:36.639Z,99.90
2019-05-02T20:19:09.409Z,99.90
2019-05-02T20:21:43.956Z,99.90
2019-05-02T20:24:17.469Z,99.90
2019-05-02T20:26:38.117Z,99.90
2019-05-02T20:29:06.564Z,99.90
2019-05-02T20:31:34.561Z,99.90
2019-05-02T20:34:02.897Z,99.90
2019-05-02T20:36:32.442Z,99.90
2019-05-02T20:38:59.511Z,99.90
2019-05-02T20:41:27.988Z,99.90
2019-05-02T20:43:56.330Z,99.90
2019-05-02T20:46:23.522Z,99.90
2019-05-02T20:48:52.631Z,99.90
2019-05-02T20:51:18.783Z,99.90
2019-05-02T20:53:45.939Z,99.90
2019-05-02T20:56:14.856Z,99.90
2019-05-02T20:58:42.152Z,99.90
2019-05-02T21:01:12.378Z,99.90
2019-05-02T21:03:39.366Z,99.90
2019-05-02T21:06:08.186Z,99.90
2019-05-02T21:08:58.537Z,99.90
2019-05-02T21:11:24.002Z,99.90
2019-05-02T21:13:52.917Z,99.90
2019-05-02T21:16:21.839Z,99.90
2019-05-02T21:18:48.413Z,99.90
2019-05-02T21:21:16.972Z,99.90
2019-05-02T21:23:47.346Z,99.90
2019-05-02T21:26:10.963Z,99.90
2019-05-02T21:28:38.524Z,99.90
2019-05-02T21:31:05.574Z,99.90
2019-05-02T21:33:36.068Z,99.90
2019-05-02T21:36:03.824Z,99.90
2019-05-02T21:38:31.947Z,99.90
2019-05-02T21:40:58.134Z,99.90
2019-05-02T21:43:26.235Z,99.90
2019-05-02T21:45:55.297Z,99.90
2019-05-02T21:48:23.204Z,99.90
2019-05-02T21:50:55.233Z,99.90
2019-05-02T21:53:33.134Z,99.90
2019-05-02T21:56:02.811Z,99.90
2019-05-02T21:58:28.997Z,99.90
2019-05-02T22:01:02.033Z,99.90
2019-05-02T22:03:28.857Z,99.90
2019-05-02T22:05:55.892Z,99.90
2019-05-02T22:08:22.911Z,99.90
2019-05-02T22:10:49.299Z,99.90
2019-05-02T22:13:15.423Z,99.90
2019-05-02T22:15:42.054Z,99.90
2019-05-02T22:18:08.174Z,99.90
2019-05-02T22:20:36.226Z,99.90
2019-05-02T22:23:03.054Z,99.90
2019-05-02T22:25:32.694Z,99.90
2019-05-02T22:28:02.018Z,99.90
2019-05-02T22:30:30.058Z,99.90
2019-05-02T22:32:59.532Z,99.90
2019-05-02T22:35:25.665Z,99.90
2019-05-02T22:37:53.643Z,99.90
2019-05-02T22:40:21.679Z,99.90
2019-05-02T22:42:49.032Z,99.90
2019-05-02T22:45:17.980Z,99.90
2019-05-02T22:47:46.106Z,99.90
2019-05-02T22:50:14.184Z,99.90
2019-05-02T22:52:41.628Z,99.90
2019-05-02T22:55:09.138Z,99.90
2019-05-02T22:57:35.224Z,99.90
2019-05-02T23:00:07.154Z,99.90
2019-05-02T23:02:35.389Z,99.90
2019-05-02T23:05:04.083Z,99.90
2019-05-02T23:07:30.137Z,99.90
2019-05-02T23:09:57.574Z,99.90
2019-05-02T23:12:25.039Z,99.90
2019-05-02T23:14:53.293Z,99.90
2019-05-02T23:17:23.199Z,99.90
2019-05-02T23:19:49.763Z,99.90
2019-05-02T23:22:15.838Z,99.90
2019-05-02T23:24:45.069Z,99.90
2019-05-02T23:27:29.187Z,99.90
2019-05-02T23:29:56.247Z,99.90
2019-05-02T23:32:23.893Z,99.90
2019-05-02T23:34:52.323Z,99.90
2019-05-02T23:37:18.469Z,99.90
2019-05-02T23:39:44.492Z,99.90
2019-05-02T23:42:10.525Z,99.90
2019-05-02T23:44:36.549Z,99.90
2019-05-02T23:47:02.892Z,99.90
2019-05-02T23:49:29.211Z,99.90
2019-05-02T23:51:55.279Z,99.90
2019-05-02T23:54:22.047Z,99.90
2019-05-02T23:56:49.223Z,99.90
2019-05-02T23:59:15.262Z,99.90
